sensor_id;sensor_type;location;lat;lon;timestamp;temperature;humidity
17619;DHT22;8928;51.678;6.074;2023-03-11T00:00:43;0.60;99.90
17619;DHT22;8928;51.678;6.074;2023-03-11T00:03:31;0.70;99.90
17619;DHT22;8928;51.678;6.074;2023-03-11T00:06:18;0.70;99.90
17619;DHT22;8928;51.678;6.074;2023-03-11T00:09:05;0.70;99.90
17619;DHT22;8928;51.678;6.074;2023-03-11T00:11:53;0.70;99.90
17619;DHT22;8928;51.678;6.074;2023-03-11T00:14:40;0.70;99.90
17619;DHT22;8928;51.678;6.074;2023-03-11T00:17:27;0.70;99.90
17619;DHT22;8928;51.678;6.074;2023-03-11T00:20:17;0.60;99.90
17619;DHT22;8928;51.678;6.074;2023-03-11T00:23:06;0.50;99.90
17619;DHT22;8928;51.678;6.074;2023-03-11T00:25:53;0.40;99.90
17619;DHT22;8928;51.678;6.074;2023-03-11T00:28:42;0.40;99.90
17619;DHT22;8928;51.678;6.074;2023-03-11T00:31:29;0.30;99.90
17619;DHT22;8928;51.678;6.074;2023-03-11T00:34:16;0.20;99.90
17619;DHT22;8928;51.678;6.074;2023-03-11T00:37:03;0.20;99.90
17619;DHT22;8928;51.678;6.074;2023-03-11T00:39:50;0.10;99.90
17619;DHT22;8928;51.678;6.074;2023-03-11T00:42:37;0.00;99.90
17619;DHT22;8928;51.678;6.074;2023-03-11T00:45:26;0.00;99.90
17619;DHT22;8928;51.678;6.074;2023-03-11T00:48:13;0.00;99.90
17619;DHT22;8928;51.678;6.074;2023-03-11T00:51:00;0.00;99.90
17619;DHT22;8928;51.678;6.074;2023-03-11T00:53:48;0.00;99.90
17619;DHT22;8928;51.678;6.074;2023-03-11T00:56:35;0.00;99.90
17619;DHT22;8928;51.678;6.074;2023-03-11T00:59:23;0.00;99.90
17619;DHT22;8928;51.678;6.074;2023-03-11T01:02:12;-0.10;99.90
17619;DHT22;8928;51.678;6.074;2023-03-11T01:04:59;-0.10;99.90
17619;DHT22;8928;51.678;6.074;2023-03-11T01:07:46;-0.10;99.90
17619;DHT22;8928;51.678;6.074;2023-03-11T01:10:33;-0.20;99.90
17619;DHT22;8928;51.678;6.074;2023-03-11T01:13:20;-0.20;99.90
17619;DHT22;8928;51.678;6.074;2023-03-11T01:16:07;-0.30;99.90
17619;DHT22;8928;51.678;6.074;2023-03-11T01:18:56;-0.30;99.90
17619;DHT22;8928;51.678;6.074;2023-03-11T01:21:43;-0.40;99.90
17619;DHT22;8928;51.678;6.074;2023-03-11T01:24:30;-0.40;99.90
17619;DHT22;8928;51.678;6.074;2023-03-11T01:27:17;-0.50;99.90
17619;DHT22;8928;51.678;6.074;2023-03-11T01:30:05;-0.50;99.90
17619;DHT22;8928;51.678;6.074;2023-03-11T01:32:53;-0.50;99.90
17619;DHT22;8928;51.678;6.074;2023-03-11T01:35:42;-0.50;99.90
17619;DHT22;8928;51.678;6.074;2023-03-11T01:38:29;-0.60;99.90
17619;DHT22;8928;51.678;6.074;2023-03-11T01:41:16;-0.60;99.90
17619;DHT22;8928;51.678;6.074;2023-03-11T01:44:03;-0.60;99.90
17619;DHT22;8928;51.678;6.074;2023-03-11T01:50:15;-0.70;99.90
17619;DHT22;8928;51.678;6.074;2023-03-11T01:53:05;-0.70;99.90
17619;DHT22;8928;51.678;6.074;2023-03-11T01:55:53;-0.80;99.90
17619;DHT22;8928;51.678;6.074;2023-03-11T01:58:43;-0.80;99.90
17619;DHT22;8928;51.678;6.074;2023-03-11T02:01:34;-0.80;99.90
17619;DHT22;8928;51.678;6.074;2023-03-11T02:04:21;-0.80;99.90
17619;DHT22;8928;51.678;6.074;2023-03-11T02:07:09;-0.80;99.90
17619;DHT22;8928;51.678;6.074;2023-03-11T02:09:58;-0.80;99.90
17619;DHT22;8928;51.678;6.074;2023-03-11T02:12:46;-0.90;99.90
17619;DHT22;8928;51.678;6.074;2023-03-11T02:15:34;-1.00;99.90
17619;DHT22;8928;51.678;6.074;2023-03-11T02:18:21;-1.10;99.90
17619;DHT22;8928;51.678;6.074;2023-03-11T02:21:18;-1.20;99.90
17619;DHT22;8928;51.678;6.074;2023-03-11T02:24:11;-1.20;99.90
17619;DHT22;8928;51.678;6.074;2023-03-11T02:27:02;-1.20;99.90
17619;DHT22;8928;51.678;6.074;2023-03-11T02:29:51;-1.20;99.90
17619;DHT22;8928;51.678;6.074;2023-03-11T02:32:39;-1.20;99.90
17619;DHT22;8928;51.678;6.074;2023-03-11T02:35:28;-1.00;99.90
17619;DHT22;8928;51.678;6.074;2023-03-11T02:38:16;-1.00;99.90
17619;DHT22;8928;51.678;6.074;2023-03-11T02:41:05;-1.00;99.90
17619;DHT22;8928;51.678;6.074;2023-03-11T02:43:53;-1.00;99.90
17619;DHT22;8928;51.678;6.074;2023-03-11T02:46:41;-1.00;99.90
17619;DHT22;8928;51.678;6.074;2023-03-11T02:49:28;-1.00;99.90
17619;DHT22;8928;51.678;6.074;2023-03-11T02:52:16;-1.00;99.90
17619;DHT22;8928;51.678;6.074;2023-03-11T02:55:05;-1.00;99.90
17619;DHT22;8928;51.678;6.074;2023-03-11T02:57:52;-0.90;99.90
17619;DHT22;8928;51.678;6.074;2023-03-11T03:00:40;-0.80;99.90
17619;DHT22;8928;51.678;6.074;2023-03-11T03:03:27;-0.70;99.90
17619;DHT22;8928;51.678;6.074;2023-03-11T03:06:14;-0.70;99.90
17619;DHT22;8928;51.678;6.074;2023-03-11T03:09:02;-0.70;99.90
17619;DHT22;8928;51.678;6.074;2023-03-11T03:11:49;-0.60;99.90
17619;DHT22;8928;51.678;6.074;2023-03-11T03:14:36;-0.60;99.90
17619;DHT22;8928;51.678;6.074;2023-03-11T03:17:24;-0.60;99.90
17619;DHT22;8928;51.678;6.074;2023-03-11T03:20:12;-0.60;99.90
17619;DHT22;8928;51.678;6.074;2023-03-11T03:23:00;-0.60;99.90
17619;DHT22;8928;51.678;6.074;2023-03-11T03:25:47;-0.60;99.90
17619;DHT22;8928;51.678;6.074;2023-03-11T03:28:34;-0.60;99.90
17619;DHT22;8928;51.678;6.074;2023-03-11T03:31:21;-0.50;99.90
17619;DHT22;8928;51.678;6.074;2023-03-11T03:34:09;-0.50;99.90
17619;DHT22;8928;51.678;6.074;2023-03-11T03:36:56;-0.50;99.90
17619;DHT22;8928;51.678;6.074;2023-03-11T03:39:43;-0.50;99.90
17619;DHT22;8928;51.678;6.074;2023-03-11T03:42:30;-0.40;99.90
17619;DHT22;8928;51.678;6.074;2023-03-11T03:45:18;-0.40;99.90
17619;DHT22;8928;51.678;6.074;2023-03-11T03:48:05;-0.50;99.90
17619;DHT22;8928;51.678;6.074;2023-03-11T03:50:54;-0.50;99.90
17619;DHT22;8928;51.678;6.074;2023-03-11T03:53:42;-0.50;99.90
17619;DHT22;8928;51.678;6.074;2023-03-11T03:56:31;-0.50;99.90
17619;DHT22;8928;51.678;6.074;2023-03-11T03:59:18;-0.40;99.90
17619;DHT22;8928;51.678;6.074;2023-03-11T04:02:05;-0.40;99.90
17619;DHT22;8928;51.678;6.074;2023-03-11T04:04:52;-0.40;99.90
17619;DHT22;8928;51.678;6.074;2023-03-11T04:07:40;-0.40;99.90
17619;DHT22;8928;51.678;6.074;2023-03-11T04:10:27;-0.40;99.90
17619;DHT22;8928;51.678;6.074;2023-03-11T04:13:14;-0.40;99.90
17619;DHT22;8928;51.678;6.074;2023-03-11T04:16:02;-0.40;99.90
17619;DHT22;8928;51.678;6.074;2023-03-11T04:18:50;-0.40;99.90
17619;DHT22;8928;51.678;6.074;2023-03-11T04:21:37;-0.50;99.90
17619;DHT22;8928;51.678;6.074;2023-03-11T04:24:25;-0.40;99.90
17619;DHT22;8928;51.678;6.074;2023-03-11T04:27:12;-0.50;99.90
17619;DHT22;8928;51.678;6.074;2023-03-11T04:29:59;-0.60;99.90
17619;DHT22;8928;51.678;6.074;2023-03-11T04:32:46;-0.70;99.90
17619;DHT22;8928;51.678;6.074;2023-03-11T04:35:33;-0.80;99.90
17619;DHT22;8928;51.678;6.074;2023-03-11T04:38:20;-0.90;99.90
17619;DHT22;8928;51.678;6.074;2023-03-11T04:41:09;-1.00;99.90
17619;DHT22;8928;51.678;6.074;2023-03-11T04:43:57;-1.10;99.90
17619;DHT22;8928;51.678;6.074;2023-03-11T04:46:44;-1.10;99.90
17619;DHT22;8928;51.678;6.074;2023-03-11T04:49:31;-1.10;99.90
17619;DHT22;8928;51.678;6.074;2023-03-11T04:52:18;-1.10;99.90
17619;DHT22;8928;51.678;6.074;2023-03-11T04:55:06;-1.10;99.90
17619;DHT22;8928;51.678;6.074;2023-03-11T04:57:55;-1.20;99.90
17619;DHT22;8928;51.678;6.074;2023-03-11T05:00:42;-1.20;99.90
17619;DHT22;8928;51.678;6.074;2023-03-11T05:03:29;-1.30;99.90
17619;DHT22;8928;51.678;6.074;2023-03-11T05:06:16;-1.30;99.90
17619;DHT22;8928;51.678;6.074;2023-03-11T05:09:03;-1.30;99.90
17619;DHT22;8928;51.678;6.074;2023-03-11T05:11:50;-1.30;99.90
17619;DHT22;8928;51.678;6.074;2023-03-11T05:14:38;-1.20;99.90
17619;DHT22;8928;51.678;6.074;2023-03-11T05:17:25;-1.20;99.90
17619;DHT22;8928;51.678;6.074;2023-03-11T05:20:13;-1.30;99.90
17619;DHT22;8928;51.678;6.074;2023-03-11T05:23:00;-1.30;99.90
17619;DHT22;8928;51.678;6.074;2023-03-11T05:25:47;-1.40;99.90
17619;DHT22;8928;51.678;6.074;2023-03-11T05:28:34;-1.50;99.90
17619;DHT22;8928;51.678;6.074;2023-03-11T05:31:22;-1.60;99.90
17619;DHT22;8928;51.678;6.074;2023-03-11T05:34:09;-1.70;99.90
17619;DHT22;8928;51.678;6.074;2023-03-11T05:36:56;-1.80;99.90
17619;DHT22;8928;51.678;6.074;2023-03-11T05:39:43;-1.80;99.90
17619;DHT22;8928;51.678;6.074;2023-03-11T05:42:30;-1.90;99.90
17619;DHT22;8928;51.678;6.074;2023-03-11T05:45:18;-1.90;99.90
17619;DHT22;8928;51.678;6.074;2023-03-11T05:48:06;-2.00;99.90
17619;DHT22;8928;51.678;6.074;2023-03-11T05:50:53;-2.00;99.90
17619;DHT22;8928;51.678;6.074;2023-03-11T05:53:41;-2.10;99.90
17619;DHT22;8928;51.678;6.074;2023-03-11T05:56:32;-2.10;99.90
17619;DHT22;8928;51.678;6.074;2023-03-11T05:59:19;-2.10;99.90
17619;DHT22;8928;51.678;6.074;2023-03-11T06:02:06;-2.00;99.90
17619;DHT22;8928;51.678;6.074;2023-03-11T06:04:55;-2.00;99.90
17619;DHT22;8928;51.678;6.074;2023-03-11T06:07:42;-1.90;99.90
17619;DHT22;8928;51.678;6.074;2023-03-11T06:10:29;-1.80;99.90
17619;DHT22;8928;51.678;6.074;2023-03-11T06:13:16;-1.70;99.90
17619;DHT22;8928;51.678;6.074;2023-03-11T06:16:04;-1.70;99.90
17619;DHT22;8928;51.678;6.074;2023-03-11T06:18:51;-1.60;99.90
17619;DHT22;8928;51.678;6.074;2023-03-11T06:21:39;-1.60;99.90
17619;DHT22;8928;51.678;6.074;2023-03-11T06:24:26;-1.50;99.90
17619;DHT22;8928;51.678;6.074;2023-03-11T06:27:13;-1.50;99.90
17619;DHT22;8928;51.678;6.074;2023-03-11T06:30:00;-1.50;99.90
17619;DHT22;8928;51.678;6.074;2023-03-11T06:32:47;-1.60;99.90
17619;DHT22;8928;51.678;6.074;2023-03-11T06:35:34;-1.50;99.90
17619;DHT22;8928;51.678;6.074;2023-03-11T06:38:23;-1.60;99.90
17619;DHT22;8928;51.678;6.074;2023-03-11T06:41:10;-1.60;99.90
17619;DHT22;8928;51.678;6.074;2023-03-11T06:43:57;-1.60;99.90
17619;DHT22;8928;51.678;6.074;2023-03-11T06:46:45;-1.60;99.90
17619;DHT22;8928;51.678;6.074;2023-03-11T06:49:32;-1.60;99.90
17619;DHT22;8928;51.678;6.074;2023-03-11T06:52:19;-1.60;99.90
17619;DHT22;8928;51.678;6.074;2023-03-11T06:55:08;-1.50;99.90
17619;DHT22;8928;51.678;6.074;2023-03-11T06:57:55;-1.50;99.90
17619;DHT22;8928;51.678;6.074;2023-03-11T07:00:42;-1.50;99.90
17619;DHT22;8928;51.678;6.074;2023-03-11T07:03:30;-1.50;99.90
17619;DHT22;8928;51.678;6.074;2023-03-11T07:06:19;-1.50;99.90
17619;DHT22;8928;51.678;6.074;2023-03-11T07:09:06;-1.40;99.90
17619;DHT22;8928;51.678;6.074;2023-03-11T07:11:54;-1.30;99.90
17619;DHT22;8928;51.678;6.074;2023-03-11T07:14:42;-1.20;99.90
17619;DHT22;8928;51.678;6.074;2023-03-11T07:17:29;-1.10;99.90
17619;DHT22;8928;51.678;6.074;2023-03-11T07:20:16;-1.00;99.90
17619;DHT22;8928;51.678;6.074;2023-03-11T07:23:03;-0.80;99.90
17619;DHT22;8928;51.678;6.074;2023-03-11T07:25:50;-0.80;99.90
17619;DHT22;8928;51.678;6.074;2023-03-11T07:28:39;-0.80;99.90
17619;DHT22;8928;51.678;6.074;2023-03-11T07:31:28;-0.70;99.90
17619;DHT22;8928;51.678;6.074;2023-03-11T07:34:16;-0.60;99.90
17619;DHT22;8928;51.678;6.074;2023-03-11T07:37:03;-0.40;99.90
17619;DHT22;8928;51.678;6.074;2023-03-11T07:39:50;-0.40;99.90
17619;DHT22;8928;51.678;6.074;2023-03-11T07:42:37;-0.30;99.90
17619;DHT22;8928;51.678;6.074;2023-03-11T07:45:26;-0.10;99.90
17619;DHT22;8928;51.678;6.074;2023-03-11T07:48:13;-0.10;99.90
17619;DHT22;8928;51.678;6.074;2023-03-11T07:51:01;0.00;99.90
17619;DHT22;8928;51.678;6.074;2023-03-11T07:53:50;0.10;99.90
17619;DHT22;8928;51.678;6.074;2023-03-11T07:56:38;0.20;99.90
17619;DHT22;8928;51.678;6.074;2023-03-11T07:59:25;0.20;99.90
17619;DHT22;8928;51.678;6.074;2023-03-11T08:02:13;0.30;99.90
17619;DHT22;8928;51.678;6.074;2023-03-11T08:05:00;0.30;99.90
17619;DHT22;8928;51.678;6.074;2023-03-11T08:07:47;0.40;99.90
17619;DHT22;8928;51.678;6.074;2023-03-11T08:10:35;0.50;99.90
17619;DHT22;8928;51.678;6.074;2023-03-11T08:13:22;0.60;99.90
17619;DHT22;8928;51.678;6.074;2023-03-11T08:16:13;0.70;99.90
17619;DHT22;8928;51.678;6.074;2023-03-11T08:19:02;0.80;99.90
17619;DHT22;8928;51.678;6.074;2023-03-11T08:21:49;0.90;99.90
17619;DHT22;8928;51.678;6.074;2023-03-11T08:24:36;1.00;99.90
17619;DHT22;8928;51.678;6.074;2023-03-11T08:27:23;1.10;99.90
17619;DHT22;8928;51.678;6.074;2023-03-11T08:30:10;1.20;99.90
17619;DHT22;8928;51.678;6.074;2023-03-11T08:32:58;1.30;99.90
17619;DHT22;8928;51.678;6.074;2023-03-11T08:35:46;1.50;99.90
17619;DHT22;8928;51.678;6.074;2023-03-11T08:38:33;1.50;99.90
17619;DHT22;8928;51.678;6.074;2023-03-11T08:41:20;1.70;99.90
17619;DHT22;8928;51.678;6.074;2023-03-11T08:44:07;1.90;99.90
17619;DHT22;8928;51.678;6.074;2023-03-11T08:46:54;2.00;99.90
17619;DHT22;8928;51.678;6.074;2023-03-11T08:49:41;2.10;99.90
17619;DHT22;8928;51.678;6.074;2023-03-11T08:52:29;2.20;99.90
17619;DHT22;8928;51.678;6.074;2023-03-11T08:55:17;2.30;99.90
17619;DHT22;8928;51.678;6.074;2023-03-11T08:58:09;2.40;99.90
17619;DHT22;8928;51.678;6.074;2023-03-11T09:00:57;2.60;99.90
17619;DHT22;8928;51.678;6.074;2023-03-11T09:03:44;2.70;99.90
17619;DHT22;8928;51.678;6.074;2023-03-11T09:06:31;2.90;99.90
17619;DHT22;8928;51.678;6.074;2023-03-11T09:09:19;3.00;99.90
17619;DHT22;8928;51.678;6.074;2023-03-11T09:12:07;3.30;99.90
17619;DHT22;8928;51.678;6.074;2023-03-11T09:14:54;3.40;99.90
17619;DHT22;8928;51.678;6.074;2023-03-11T09:17:42;3.60;99.90
17619;DHT22;8928;51.678;6.074;2023-03-11T09:20:29;3.80;99.90
17619;DHT22;8928;51.678;6.074;2023-03-11T09:23:16;3.90;99.90
17619;DHT22;8928;51.678;6.074;2023-03-11T09:26:05;4.00;99.90
17619;DHT22;8928;51.678;6.074;2023-03-11T09:28:52;4.20;99.90
17619;DHT22;8928;51.678;6.074;2023-03-11T09:31:39;4.10;99.90
17619;DHT22;8928;51.678;6.074;2023-03-11T09:34:26;4.10;99.90
17619;DHT22;8928;51.678;6.074;2023-03-11T09:37:13;4.10;99.90
17619;DHT22;8928;51.678;6.074;2023-03-11T09:40:00;4.20;99.90
17619;DHT22;8928;51.678;6.074;2023-03-11T09:42:56;4.30;99.90
17619;DHT22;8928;51.678;6.074;2023-03-11T09:45:52;4.40;99.90
17619;DHT22;8928;51.678;6.074;2023-03-11T09:48:44;4.40;99.90
17619;DHT22;8928;51.678;6.074;2023-03-11T09:51:38;4.30;99.90
17619;DHT22;8928;51.678;6.074;2023-03-11T09:54:28;4.40;99.90
17619;DHT22;8928;51.678;6.074;2023-03-11T09:57:22;4.70;99.90
17619;DHT22;8928;51.678;6.074;2023-03-11T10:00:12;5.10;99.90
17619;DHT22;8928;51.678;6.074;2023-03-11T10:03:06;5.00;99.90
17619;DHT22;8928;51.678;6.074;2023-03-11T10:06:13;5.20;99.90
17619;DHT22;8928;51.678;6.074;2023-03-11T10:09:06;5.50;99.90
17619;DHT22;8928;51.678;6.074;2023-03-11T10:12:08;5.30;99.90
17619;DHT22;8928;51.678;6.074;2023-03-11T10:15:11;5.30;99.90
17619;DHT22;8928;51.678;6.074;2023-03-11T10:18:07;5.10;99.90
17619;DHT22;8928;51.678;6.074;2023-03-11T10:21:00;5.20;99.90
17619;DHT22;8928;51.678;6.074;2023-03-11T10:23:58;5.30;99.90
17619;DHT22;8928;51.678;6.074;2023-03-11T10:26:49;5.40;99.90
17619;DHT22;8928;51.678;6.074;2023-03-11T10:29:44;5.50;99.90
17619;DHT22;8928;51.678;6.074;2023-03-11T10:32:38;5.90;99.90
17619;DHT22;8928;51.678;6.074;2023-03-11T10:35:33;6.10;99.90
17619;DHT22;8928;51.678;6.074;2023-03-11T10:38:25;6.10;99.90
17619;DHT22;8928;51.678;6.074;2023-03-11T10:41:16;6.30;99.90
17619;DHT22;8928;51.678;6.074;2023-03-11T10:44:10;6.60;99.90
17619;DHT22;8928;51.678;6.074;2023-03-11T10:46:59;7.00;99.90
17619;DHT22;8928;51.678;6.074;2023-03-11T10:49:47;7.30;99.90
17619;DHT22;8928;51.678;6.074;2023-03-11T10:52:41;7.00;99.90
17619;DHT22;8928;51.678;6.074;2023-03-11T10:55:29;6.70;99.90
17619;DHT22;8928;51.678;6.074;2023-03-11T10:58:19;6.80;99.90
17619;DHT22;8928;51.678;6.074;2023-03-11T11:01:13;6.50;99.90
17619;DHT22;8928;51.678;6.074;2023-03-11T11:04:01;6.60;99.90
17619;DHT22;8928;51.678;6.074;2023-03-11T11:06:50;6.80;99.90
17619;DHT22;8928;51.678;6.074;2023-03-11T11:09:37;6.70;99.90
17619;DHT22;8928;51.678;6.074;2023-03-11T11:12:24;6.60;99.90
17619;DHT22;8928;51.678;6.074;2023-03-11T11:15:20;6.60;99.90
17619;DHT22;8928;51.678;6.074;2023-03-11T11:18:16;6.60;99.90
17619;DHT22;8928;51.678;6.074;2023-03-11T11:21:06;6.60;99.90
17619;DHT22;8928;51.678;6.074;2023-03-11T11:24:04;6.60;99.90
17619;DHT22;8928;51.678;6.074;2023-03-11T11:27:03;7.00;99.90
17619;DHT22;8928;51.678;6.074;2023-03-11T11:30:13;7.00;99.90
17619;DHT22;8928;51.678;6.074;2023-03-11T11:33:21;6.90;99.90
17619;DHT22;8928;51.678;6.074;2023-03-11T11:36:13;6.80;99.90
17619;DHT22;8928;51.678;6.074;2023-03-11T11:39:11;6.90;99.90
17619;DHT22;8928;51.678;6.074;2023-03-11T11:42:02;7.20;99.90
17619;DHT22;8928;51.678;6.074;2023-03-11T11:44:52;7.50;99.90
17619;DHT22;8928;51.678;6.074;2023-03-11T11:47:45;7.70;99.90
17619;DHT22;8928;51.678;6.074;2023-03-11T11:50:35;7.30;99.90
17619;DHT22;8928;51.678;6.074;2023-03-11T11:53:27;7.30;99.90
17619;DHT22;8928;51.678;6.074;2023-03-11T11:56:18;7.20;99.90
17619;DHT22;8928;51.678;6.074;2023-03-11T11:59:14;7.80;99.90
17619;DHT22;8928;51.678;6.074;2023-03-11T12:02:11;7.90;99.90
17619;DHT22;8928;51.678;6.074;2023-03-11T12:05:07;7.90;99.90
17619;DHT22;8928;51.678;6.074;2023-03-11T12:08:02;7.60;99.90
17619;DHT22;8928;51.678;6.074;2023-03-11T12:10:56;8.00;99.90
17619;DHT22;8928;51.678;6.074;2023-03-11T12:13:53;8.10;99.90
17619;DHT22;8928;51.678;6.074;2023-03-11T12:16:51;8.70;99.90
17619;DHT22;8928;51.678;6.074;2023-03-11T12:19:46;9.10;99.90
17619;DHT22;8928;51.678;6.074;2023-03-11T12:26:13;10.20;99.90
17619;DHT22;8928;51.678;6.074;2023-03-11T12:29:06;10.40;99.90
17619;DHT22;8928;51.678;6.074;2023-03-11T12:31:54;10.30;99.90
17619;DHT22;8928;51.678;6.074;2023-03-11T12:34:43;10.00;99.90
17619;DHT22;8928;51.678;6.074;2023-03-11T12:37:30;10.10;99.90
17619;DHT22;8928;51.678;6.074;2023-03-11T12:40:46;10.30;99.90
17619;DHT22;8928;51.678;6.074;2023-03-11T12:47:01;10.70;99.90
17619;DHT22;8928;51.678;6.074;2023-03-11T12:49:50;11.10;99.90
17619;DHT22;8928;51.678;6.074;2023-03-11T12:52:51;10.90;99.90
17619;DHT22;8928;51.678;6.074;2023-03-11T12:55:39;11.20;99.90
17619;DHT22;8928;51.678;6.074;2023-03-11T12:58:47;10.90;99.90
17619;DHT22;8928;51.678;6.074;2023-03-11T13:01:55;10.40;99.90
17619;DHT22;8928;51.678;6.074;2023-03-11T13:04:53;10.60;99.90
17619;DHT22;8928;51.678;6.074;2023-03-11T13:07:47;11.10;99.90
17619;DHT22;8928;51.678;6.074;2023-03-11T13:10:37;11.20;99.90
17619;DHT22;8928;51.678;6.074;2023-03-11T13:13:36;11.20;99.90
17619;DHT22;8928;51.678;6.074;2023-03-11T13:16:37;11.30;99.90
17619;DHT22;8928;51.678;6.074;2023-03-11T13:19:54;11.20;99.90
17619;DHT22;8928;51.678;6.074;2023-03-11T13:22:43;11.90;99.90
17619;DHT22;8928;51.678;6.074;2023-03-11T13:29:50;12.70;99.90
17619;DHT22;8928;51.678;6.074;2023-03-11T13:33:04;13.00;99.90
17619;DHT22;8928;51.678;6.074;2023-03-11T13:36:09;13.50;96.10
17619;DHT22;8928;51.678;6.074;2023-03-11T13:39:21;13.00;94.90
17619;DHT22;8928;51.678;6.074;2023-03-11T13:42:20;12.90;95.00
17619;DHT22;8928;51.678;6.074;2023-03-11T13:45:21;13.40;98.10
17619;DHT22;8928;51.678;6.074;2023-03-11T13:48:13;13.30;92.00
17619;DHT22;8928;51.678;6.074;2023-03-11T13:51:03;13.80;88.70
17619;DHT22;8928;51.678;6.074;2023-03-11T13:53:55;14.70;88.10
17619;DHT22;8928;51.678;6.074;2023-03-11T13:56:46;14.90;89.10
17619;DHT22;8928;51.678;6.074;2023-03-11T13:59:34;15.50;93.70
17619;DHT22;8928;51.678;6.074;2023-03-11T14:02:24;15.70;84.20
17619;DHT22;8928;51.678;6.074;2023-03-11T14:05:14;15.90;75.20
17619;DHT22;8928;51.678;6.074;2023-03-11T14:08:12;16.20;83.20
17619;DHT22;8928;51.678;6.074;2023-03-11T14:11:15;16.00;69.20
17619;DHT22;8928;51.678;6.074;2023-03-11T14:14:29;16.10;74.30
17619;DHT22;8928;51.678;6.074;2023-03-11T14:17:19;15.50;79.40
17619;DHT22;8928;51.678;6.074;2023-03-11T14:20:12;15.20;69.70
17619;DHT22;8928;51.678;6.074;2023-03-11T14:23:00;15.50;71.50
17619;DHT22;8928;51.678;6.074;2023-03-11T14:25:57;15.40;70.40
17619;DHT22;8928;51.678;6.074;2023-03-11T14:28:46;14.90;71.20
17619;DHT22;8928;51.678;6.074;2023-03-11T14:31:36;14.20;68.20
17619;DHT22;8928;51.678;6.074;2023-03-11T14:34:24;14.10;75.60
17619;DHT22;8928;51.678;6.074;2023-03-11T14:37:24;13.90;67.50
17619;DHT22;8928;51.678;6.074;2023-03-11T14:40:22;14.10;70.70
17619;DHT22;8928;51.678;6.074;2023-03-11T14:43:10;15.10;71.40
17619;DHT22;8928;51.678;6.074;2023-03-11T14:45:58;15.30;70.90
17619;DHT22;8928;51.678;6.074;2023-03-11T14:48:45;15.60;65.30
17619;DHT22;8928;51.678;6.074;2023-03-11T14:51:34;15.10;72.70
17619;DHT22;8928;51.678;6.074;2023-03-11T14:54:25;15.10;67.90
17619;DHT22;8928;51.678;6.074;2023-03-11T14:57:18;15.50;68.80
17619;DHT22;8928;51.678;6.074;2023-03-11T15:00:14;14.70;66.70
17619;DHT22;8928;51.678;6.074;2023-03-11T15:03:08;14.10;61.70
17619;DHT22;8928;51.678;6.074;2023-03-11T15:06:02;13.80;63.30
17619;DHT22;8928;51.678;6.074;2023-03-11T15:08:53;12.90;66.50
17619;DHT22;8928;51.678;6.074;2023-03-11T15:11:48;12.40;69.80
17619;DHT22;8928;51.678;6.074;2023-03-11T15:14:48;11.70;69.50
17619;DHT22;8928;51.678;6.074;2023-03-11T15:17:35;11.60;72.90
17619;DHT22;8928;51.678;6.074;2023-03-11T15:20:25;11.50;76.00
17619;DHT22;8928;51.678;6.074;2023-03-11T15:23:20;11.30;71.20
17619;DHT22;8928;51.678;6.074;2023-03-11T15:26:17;11.60;76.70
17619;DHT22;8928;51.678;6.074;2023-03-11T15:29:14;12.20;73.80
17619;DHT22;8928;51.678;6.074;2023-03-11T15:32:22;12.60;68.80
17619;DHT22;8928;51.678;6.074;2023-03-11T15:35:16;13.30;67.60
17619;DHT22;8928;51.678;6.074;2023-03-11T15:38:11;13.70;65.20
17619;DHT22;8928;51.678;6.074;2023-03-11T15:41:00;14.20;67.20
17619;DHT22;8928;51.678;6.074;2023-03-11T15:43:48;14.70;64.60
17619;DHT22;8928;51.678;6.074;2023-03-11T15:46:36;14.40;62.50
17619;DHT22;8928;51.678;6.074;2023-03-11T15:49:24;13.90;60.70
17619;DHT22;8928;51.678;6.074;2023-03-11T15:52:11;14.00;66.20
17619;DHT22;8928;51.678;6.074;2023-03-11T15:54:58;14.40;64.80
17619;DHT22;8928;51.678;6.074;2023-03-11T15:57:46;14.30;65.00
17619;DHT22;8928;51.678;6.074;2023-03-11T16:00:35;13.50;64.40
17619;DHT22;8928;51.678;6.074;2023-03-11T16:03:23;13.00;65.60
17619;DHT22;8928;51.678;6.074;2023-03-11T16:06:10;12.80;68.60
17619;DHT22;8928;51.678;6.074;2023-03-11T16:08:57;13.00;62.40
17619;DHT22;8928;51.678;6.074;2023-03-11T16:11:44;13.10;65.50
17619;DHT22;8928;51.678;6.074;2023-03-11T16:14:31;13.60;61.70
17619;DHT22;8928;51.678;6.074;2023-03-11T16:17:18;13.70;64.00
17619;DHT22;8928;51.678;6.074;2023-03-11T16:20:10;13.30;63.90
17619;DHT22;8928;51.678;6.074;2023-03-11T16:22:57;12.40;61.80
17619;DHT22;8928;51.678;6.074;2023-03-11T16:25:46;11.40;60.50
17619;DHT22;8928;51.678;6.074;2023-03-11T16:28:34;10.90;68.40
17619;DHT22;8928;51.678;6.074;2023-03-11T16:31:21;10.60;65.90
17619;DHT22;8928;51.678;6.074;2023-03-11T16:34:08;10.40;66.90
17619;DHT22;8928;51.678;6.074;2023-03-11T16:36:56;10.20;71.70
17619;DHT22;8928;51.678;6.074;2023-03-11T16:39:43;10.30;65.70
17619;DHT22;8928;51.678;6.074;2023-03-11T16:42:30;9.90;65.30
17619;DHT22;8928;51.678;6.074;2023-03-11T16:45:17;9.50;69.30
17619;DHT22;8928;51.678;6.074;2023-03-11T16:48:05;8.90;67.00
17619;DHT22;8928;51.678;6.074;2023-03-11T16:50:53;8.40;67.20
17619;DHT22;8928;51.678;6.074;2023-03-11T16:53:41;8.20;67.50
17619;DHT22;8928;51.678;6.074;2023-03-11T16:56:28;7.80;70.50
17619;DHT22;8928;51.678;6.074;2023-03-11T16:59:15;7.60;75.40
17619;DHT22;8928;51.678;6.074;2023-03-11T17:02:02;7.50;74.40
17619;DHT22;8928;51.678;6.074;2023-03-11T17:04:49;7.00;76.50
17619;DHT22;8928;51.678;6.074;2023-03-11T17:07:38;6.60;76.50
17619;DHT22;8928;51.678;6.074;2023-03-11T17:10:27;6.20;78.60
17619;DHT22;8928;51.678;6.074;2023-03-11T17:13:14;5.70;85.80
17619;DHT22;8928;51.678;6.074;2023-03-11T17:16:02;5.40;91.70
17619;DHT22;8928;51.678;6.074;2023-03-11T17:18:49;5.10;99.90
17619;DHT22;8928;51.678;6.074;2023-03-11T17:21:36;4.70;99.90
17619;DHT22;8928;51.678;6.074;2023-03-11T17:24:23;4.50;99.90
17619;DHT22;8928;51.678;6.074;2023-03-11T17:27:11;4.30;99.90
17619;DHT22;8928;51.678;6.074;2023-03-11T17:29:58;4.10;99.90
17619;DHT22;8928;51.678;6.074;2023-03-11T17:32:45;3.90;99.90
17619;DHT22;8928;51.678;6.074;2023-03-11T17:35:32;3.60;99.90
17619;DHT22;8928;51.678;6.074;2023-03-11T17:38:19;3.50;99.90
17619;DHT22;8928;51.678;6.074;2023-03-11T17:41:07;3.30;99.90
17619;DHT22;8928;51.678;6.074;2023-03-11T17:43:55;3.20;99.90
17619;DHT22;8928;51.678;6.074;2023-03-11T17:46:42;3.00;99.90
17619;DHT22;8928;51.678;6.074;2023-03-11T17:49:29;2.80;99.90
17619;DHT22;8928;51.678;6.074;2023-03-11T17:52:16;2.70;99.90
17619;DHT22;8928;51.678;6.074;2023-03-11T17:55:04;2.50;99.90
17619;DHT22;8928;51.678;6.074;2023-03-11T17:57:51;2.40;99.90
17619;DHT22;8928;51.678;6.074;2023-03-11T18:00:40;2.20;99.90
17619;DHT22;8928;51.678;6.074;2023-03-11T18:03:27;2.10;99.90
17619;DHT22;8928;51.678;6.074;2023-03-11T18:06:14;1.90;99.90
17619;DHT22;8928;51.678;6.074;2023-03-11T18:09:03;1.90;99.90
17619;DHT22;8928;51.678;6.074;2023-03-11T18:11:50;1.90;99.90
17619;DHT22;8928;51.678;6.074;2023-03-11T18:14:37;1.80;99.90
17619;DHT22;8928;51.678;6.074;2023-03-11T18:17:25;1.70;99.90
17619;DHT22;8928;51.678;6.074;2023-03-11T18:20:14;1.60;99.90
17619;DHT22;8928;51.678;6.074;2023-03-11T18:23:01;1.50;99.90
17619;DHT22;8928;51.678;6.074;2023-03-11T18:25:49;1.40;99.90
17619;DHT22;8928;51.678;6.074;2023-03-11T18:28:37;1.30;99.90
17619;DHT22;8928;51.678;6.074;2023-03-11T18:31:26;1.20;99.90